sensor_id;sensor_type;location;lat;lon;timestamp;P1;durP1;ratioP1;P2;durP2;ratioP2
24685;SDS011;12804;51.176;4.452;2024-03-07T00:01:05;37.08;;;22.05;;
24685;SDS011;12804;51.176;4.452;2024-03-07T00:03:30;40.58;;;21.73;;
24685;SDS011;12804;51.176;4.452;2024-03-07T00:05:56;38.40;;;21.10;;
24685;SDS011;12804;51.176;4.452;2024-03-07T00:08:22;41.00;;;21.60;;
24685;SDS011;12804;51.176;4.452;2024-03-07T00:10:48;42.17;;;22.80;;
24685;SDS011;12804;51.176;4.452;2024-03-07T00:13:14;40.22;;;22.48;;
24685;SDS011;12804;51.176;4.452;2024-03-07T00:15:40;43.40;;;23.23;;
24685;SDS011;12804;51.176;4.452;2024-03-07T00:18:06;42.53;;;22.35;;
24685;SDS011;12804;51.176;4.452;2024-03-07T00:20:32;45.08;;;23.38;;
24685;SDS011;12804;51.176;4.452;2024-03-07T00:22:58;43.70;;;23.35;;
24685;SDS011;12804;51.176;4.452;2024-03-07T00:25:24;41.92;;;22.58;;
24685;SDS011;12804;51.176;4.452;2024-03-07T00:27:51;45.67;;;23.92;;
24685;SDS011;12804;51.176;4.452;2024-03-07T00:30:19;44.90;;;22.83;;
24685;SDS011;12804;51.176;4.452;2024-03-07T00:32:45;53.03;;;24.80;;
24685;SDS011;12804;51.176;4.452;2024-03-07T00:35:12;45.90;;;23.63;;
24685;SDS011;12804;51.176;4.452;2024-03-07T00:37:38;48.65;;;24.45;;
24685;SDS011;12804;51.176;4.452;2024-03-07T00:40:04;47.17;;;23.60;;
24685;SDS011;12804;51.176;4.452;2024-03-07T00:42:31;44.88;;;23.48;;
24685;SDS011;12804;51.176;4.452;2024-03-07T00:44:57;45.97;;;24.65;;
24685;SDS011;12804;51.176;4.452;2024-03-07T00:47:23;47.38;;;23.83;;
24685;SDS011;12804;51.176;4.452;2024-03-07T00:49:49;44.95;;;23.60;;
24685;SDS011;12804;51.176;4.452;2024-03-07T00:52:15;49.03;;;23.55;;
24685;SDS011;12804;51.176;4.452;2024-03-07T00:54:41;45.85;;;24.55;;
24685;SDS011;12804;51.176;4.452;2024-03-07T00:57:07;46.13;;;23.55;;
24685;SDS011;12804;51.176;4.452;2024-03-07T00:59:33;43.92;;;24.17;;
24685;SDS011;12804;51.176;4.452;2024-03-07T01:02:00;46.58;;;25.27;;
24685;SDS011;12804;51.176;4.452;2024-03-07T01:04:26;49.88;;;24.20;;
24685;SDS011;12804;51.176;4.452;2024-03-07T01:06:56;51.20;;;24.95;;
24685;SDS011;12804;51.176;4.452;2024-03-07T01:09:23;49.58;;;25.00;;
24685;SDS011;12804;51.176;4.452;2024-03-07T01:11:49;47.10;;;25.27;;
24685;SDS011;12804;51.176;4.452;2024-03-07T01:14:15;50.53;;;25.73;;
24685;SDS011;12804;51.176;4.452;2024-03-07T01:16:41;49.22;;;25.30;;
24685;SDS011;12804;51.176;4.452;2024-03-07T01:19:07;52.30;;;24.40;;
24685;SDS011;12804;51.176;4.452;2024-03-07T01:21:34;50.75;;;24.65;;
24685;SDS011;12804;51.176;4.452;2024-03-07T01:24:00;49.15;;;25.65;;
24685;SDS011;12804;51.176;4.452;2024-03-07T01:26:27;50.63;;;25.08;;
24685;SDS011;12804;51.176;4.452;2024-03-07T01:28:54;52.53;;;25.55;;
24685;SDS011;12804;51.176;4.452;2024-03-07T01:31:21;56.05;;;27.25;;
24685;SDS011;12804;51.176;4.452;2024-03-07T01:33:48;49.10;;;24.30;;
24685;SDS011;12804;51.176;4.452;2024-03-07T01:36:14;49.85;;;25.17;;
24685;SDS011;12804;51.176;4.452;2024-03-07T01:38:40;54.05;;;25.92;;
24685;SDS011;12804;51.176;4.452;2024-03-07T01:41:06;50.08;;;25.08;;
24685;SDS011;12804;51.176;4.452;2024-03-07T01:43:32;52.83;;;25.73;;
24685;SDS011;12804;51.176;4.452;2024-03-07T01:45:58;52.25;;;25.20;;
24685;SDS011;12804;51.176;4.452;2024-03-07T01:48:27;52.95;;;26.83;;
24685;SDS011;12804;51.176;4.452;2024-03-07T01:50:54;54.13;;;26.67;;
24685;SDS011;12804;51.176;4.452;2024-03-07T01:53:21;51.05;;;25.20;;
24685;SDS011;12804;51.176;4.452;2024-03-07T01:55:48;56.22;;;26.55;;
24685;SDS011;12804;51.176;4.452;2024-03-07T01:58:17;54.85;;;25.90;;
24685;SDS011;12804;51.176;4.452;2024-03-07T02:00:44;53.53;;;26.73;;
24685;SDS011;12804;51.176;4.452;2024-03-07T02:03:10;56.22;;;26.20;;
24685;SDS011;12804;51.176;4.452;2024-03-07T02:05:39;55.85;;;26.40;;
24685;SDS011;12804;51.176;4.452;2024-03-07T02:08:05;47.65;;;25.55;;
24685;SDS011;12804;51.176;4.452;2024-03-07T02:10:31;53.30;;;25.83;;
24685;SDS011;12804;51.176;4.452;2024-03-07T02:12:57;56.90;;;26.95;;
24685;SDS011;12804;51.176;4.452;2024-03-07T02:15:23;54.03;;;26.35;;
24685;SDS011;12804;51.176;4.452;2024-03-07T02:17:49;51.72;;;26.48;;
24685;SDS011;12804;51.176;4.452;2024-03-07T02:20:15;53.78;;;27.08;;
24685;SDS011;12804;51.176;4.452;2024-03-07T02:22:41;55.85;;;26.30;;
24685;SDS011;12804;51.176;4.452;2024-03-07T02:25:07;58.10;;;26.90;;
24685;SDS011;12804;51.176;4.452;2024-03-07T02:27:36;55.67;;;26.20;;
24685;SDS011;12804;51.176;4.452;2024-03-07T02:30:03;59.03;;;26.38;;
24685;SDS011;12804;51.176;4.452;2024-03-07T02:32:33;58.70;;;27.77;;
24685;SDS011;12804;51.176;4.452;2024-03-07T02:34:59;56.80;;;27.30;;
24685;SDS011;12804;51.176;4.452;2024-03-07T02:37:25;57.67;;;28.60;;
24685;SDS011;12804;51.176;4.452;2024-03-07T02:39:54;54.05;;;26.90;;
24685;SDS011;12804;51.176;4.452;2024-03-07T02:42:20;57.25;;;27.50;;
24685;SDS011;12804;51.176;4.452;2024-03-07T02:44:46;58.67;;;27.65;;
24685;SDS011;12804;51.176;4.452;2024-03-07T02:47:12;55.47;;;27.23;;
24685;SDS011;12804;51.176;4.452;2024-03-07T02:49:38;59.50;;;27.95;;
24685;SDS011;12804;51.176;4.452;2024-03-07T02:52:04;61.00;;;27.08;;
24685;SDS011;12804;51.176;4.452;2024-03-07T02:54:33;62.88;;;28.35;;
24685;SDS011;12804;51.176;4.452;2024-03-07T02:56:59;65.60;;;28.25;;
24685;SDS011;12804;51.176;4.452;2024-03-07T02:59:26;58.22;;;26.42;;
24685;SDS011;12804;51.176;4.452;2024-03-07T03:01:51;61.13;;;26.92;;
24685;SDS011;12804;51.176;4.452;2024-03-07T03:04:17;62.13;;;27.33;;
24685;SDS011;12804;51.176;4.452;2024-03-07T03:06:43;65.25;;;28.35;;
24685;SDS011;12804;51.176;4.452;2024-03-07T03:09:10;58.67;;;26.75;;
24685;SDS011;12804;51.176;4.452;2024-03-07T03:11:43;60.58;;;27.38;;
24685;SDS011;12804;51.176;4.452;2024-03-07T03:14:09;59.65;;;26.73;;
24685;SDS011;12804;51.176;4.452;2024-03-07T03:16:41;61.47;;;28.40;;
24685;SDS011;12804;51.176;4.452;2024-03-07T03:19:10;39.92;;;18.42;;
24685;SDS011;12804;51.176;4.452;2024-03-07T03:21:37;54.45;;;25.80;;
24685;SDS011;12804;51.176;4.452;2024-03-07T03:24:03;61.33;;;27.27;;
24685;SDS011;12804;51.176;4.452;2024-03-07T03:26:29;54.45;;;26.23;;
24685;SDS011;12804;51.176;4.452;2024-03-07T03:28:56;59.58;;;27.33;;
24685;SDS011;12804;51.176;4.452;2024-03-07T03:31:22;59.88;;;27.13;;
24685;SDS011;12804;51.176;4.452;2024-03-07T03:33:48;61.50;;;27.10;;
24685;SDS011;12804;51.176;4.452;2024-03-07T03:36:16;54.05;;;25.98;;
24685;SDS011;12804;51.176;4.452;2024-03-07T03:38:41;61.05;;;27.05;;
24685;SDS011;12804;51.176;4.452;2024-03-07T03:41:07;59.50;;;26.65;;
24685;SDS011;12804;51.176;4.452;2024-03-07T03:43:33;62.70;;;28.05;;
24685;SDS011;12804;51.176;4.452;2024-03-07T03:45:59;62.05;;;28.52;;
24685;SDS011;12804;51.176;4.452;2024-03-07T03:48:27;62.17;;;28.55;;
24685;SDS011;12804;51.176;4.452;2024-03-07T03:50:53;65.82;;;27.80;;
24685;SDS011;12804;51.176;4.452;2024-03-07T03:53:19;66.65;;;27.10;;
24685;SDS011;12804;51.176;4.452;2024-03-07T03:55:45;62.17;;;27.67;;
24685;SDS011;12804;51.176;4.452;2024-03-07T03:58:10;62.00;;;27.83;;
24685;SDS011;12804;51.176;4.452;2024-03-07T04:00:36;67.47;;;28.90;;
24685;SDS011;12804;51.176;4.452;2024-03-07T04:03:04;68.50;;;28.05;;
24685;SDS011;12804;51.176;4.452;2024-03-07T04:05:30;64.38;;;26.88;;
24685;SDS011;12804;51.176;4.452;2024-03-07T04:07:56;69.15;;;28.60;;
24685;SDS011;12804;51.176;4.452;2024-03-07T04:10:23;56.42;;;26.00;;
24685;SDS011;12804;51.176;4.452;2024-03-07T04:12:49;65.93;;;29.70;;
24685;SDS011;12804;51.176;4.452;2024-03-07T04:15:15;65.07;;;28.83;;
24685;SDS011;12804;51.176;4.452;2024-03-07T04:17:41;71.60;;;27.98;;
24685;SDS011;12804;51.176;4.452;2024-03-07T04:20:08;64.63;;;27.33;;
24685;SDS011;12804;51.176;4.452;2024-03-07T04:22:35;74.93;;;29.73;;
24685;SDS011;12804;51.176;4.452;2024-03-07T04:25:04;67.70;;;28.48;;
24685;SDS011;12804;51.176;4.452;2024-03-07T04:27:32;66.60;;;28.63;;
24685;SDS011;12804;51.176;4.452;2024-03-07T04:29:59;67.70;;;28.10;;
24685;SDS011;12804;51.176;4.452;2024-03-07T04:32:28;61.60;;;29.17;;
24685;SDS011;12804;51.176;4.452;2024-03-07T04:34:54;70.65;;;29.50;;
24685;SDS011;12804;51.176;4.452;2024-03-07T04:37:22;73.10;;;29.10;;
24685;SDS011;12804;51.176;4.452;2024-03-07T04:39:48;65.78;;;28.95;;
24685;SDS011;12804;51.176;4.452;2024-03-07T04:42:14;75.40;;;28.83;;
24685;SDS011;12804;51.176;4.452;2024-03-07T04:44:40;70.57;;;28.75;;
24685;SDS011;12804;51.176;4.452;2024-03-07T04:47:06;67.40;;;28.10;;
24685;SDS011;12804;51.176;4.452;2024-03-07T04:49:32;66.80;;;28.52;;
24685;SDS011;12804;51.176;4.452;2024-03-07T04:51:59;66.00;;;29.52;;
24685;SDS011;12804;51.176;4.452;2024-03-07T04:54:27;67.80;;;29.60;;
24685;SDS011;12804;51.176;4.452;2024-03-07T04:56:54;75.03;;;29.38;;
24685;SDS011;12804;51.176;4.452;2024-03-07T04:59:21;66.10;;;28.92;;
24685;SDS011;12804;51.176;4.452;2024-03-07T05:01:47;72.03;;;30.05;;
24685;SDS011;12804;51.176;4.452;2024-03-07T05:04:17;69.75;;;29.13;;
24685;SDS011;12804;51.176;4.452;2024-03-07T05:06:44;67.53;;;28.05;;
24685;SDS011;12804;51.176;4.452;2024-03-07T05:09:13;68.28;;;27.77;;
24685;SDS011;12804;51.176;4.452;2024-03-07T05:11:48;70.28;;;29.08;;
24685;SDS011;12804;51.176;4.452;2024-03-07T05:14:17;72.97;;;30.23;;
24685;SDS011;12804;51.176;4.452;2024-03-07T05:16:43;78.63;;;31.80;;
24685;SDS011;12804;51.176;4.452;2024-03-07T05:19:09;74.88;;;30.23;;
24685;SDS011;12804;51.176;4.452;2024-03-07T05:21:35;75.15;;;30.45;;
24685;SDS011;12804;51.176;4.452;2024-03-07T05:24:08;82.93;;;33.08;;
24685;SDS011;12804;51.176;4.452;2024-03-07T05:26:36;78.07;;;31.42;;
24685;SDS011;12804;51.176;4.452;2024-03-07T05:29:09;72.55;;;29.77;;
24685;SDS011;12804;51.176;4.452;2024-03-07T05:31:37;78.63;;;31.90;;
24685;SDS011;12804;51.176;4.452;2024-03-07T05:34:04;85.13;;;33.42;;
24685;SDS011;12804;51.176;4.452;2024-03-07T05:36:33;75.82;;;31.63;;
24685;SDS011;12804;51.176;4.452;2024-03-07T05:39:09;78.53;;;32.25;;
24685;SDS011;12804;51.176;4.452;2024-03-07T05:41:39;75.72;;;31.00;;
24685;SDS011;12804;51.176;4.452;2024-03-07T05:44:06;79.47;;;31.70;;
24685;SDS011;12804;51.176;4.452;2024-03-07T05:46:38;75.63;;;31.17;;
24685;SDS011;12804;51.176;4.452;2024-03-07T05:49:11;84.18;;;31.55;;
24685;SDS011;12804;51.176;4.452;2024-03-07T05:51:40;77.53;;;32.33;;
24685;SDS011;12804;51.176;4.452;2024-03-07T05:54:09;80.18;;;33.95;;
24685;SDS011;12804;51.176;4.452;2024-03-07T05:56:35;98.55;;;35.88;;
24685;SDS011;12804;51.176;4.452;2024-03-07T05:59:04;96.15;;;35.08;;
24685;SDS011;12804;51.176;4.452;2024-03-07T06:01:32;86.57;;;34.95;;
24685;SDS011;12804;51.176;4.452;2024-03-07T06:04:03;97.25;;;37.55;;
24685;SDS011;12804;51.176;4.452;2024-03-07T06:06:31;101.72;;;37.28;;
24685;SDS011;12804;51.176;4.452;2024-03-07T06:08:58;99.85;;;37.40;;
24685;SDS011;12804;51.176;4.452;2024-03-07T06:11:34;96.47;;;35.05;;
24685;SDS011;12804;51.176;4.452;2024-03-07T06:14:01;101.63;;;36.22;;
24685;SDS011;12804;51.176;4.452;2024-03-07T06:16:31;97.97;;;37.70;;
24685;SDS011;12804;51.176;4.452;2024-03-07T06:19:02;113.68;;;38.97;;
24685;SDS011;12804;51.176;4.452;2024-03-07T06:21:29;106.22;;;38.25;;
24685;SDS011;12804;51.176;4.452;2024-03-07T06:24:01;101.88;;;37.28;;
24685;SDS011;12804;51.176;4.452;2024-03-07T06:26:29;95.95;;;36.53;;
24685;SDS011;12804;51.176;4.452;2024-03-07T06:29:14;96.75;;;36.38;;
24685;SDS011;12804;51.176;4.452;2024-03-07T06:31:44;98.63;;;36.72;;
24685;SDS011;12804;51.176;4.452;2024-03-07T06:34:14;91.28;;;35.58;;
24685;SDS011;12804;51.176;4.452;2024-03-07T06:36:40;98.47;;;37.05;;
24685;SDS011;12804;51.176;4.452;2024-03-07T06:39:05;96.35;;;37.20;;
24685;SDS011;12804;51.176;4.452;2024-03-07T06:41:35;98.60;;;38.33;;
24685;SDS011;12804;51.176;4.452;2024-03-07T06:44:01;96.88;;;37.13;;
24685;SDS011;12804;51.176;4.452;2024-03-07T06:46:28;92.93;;;36.30;;
24685;SDS011;12804;51.176;4.452;2024-03-07T06:48:54;100.18;;;37.65;;
24685;SDS011;12804;51.176;4.452;2024-03-07T06:51:23;92.80;;;35.30;;
24685;SDS011;12804;51.176;4.452;2024-03-07T06:53:50;98.22;;;35.40;;
24685;SDS011;12804;51.176;4.452;2024-03-07T06:56:16;91.75;;;36.20;;
24685;SDS011;12804;51.176;4.452;2024-03-07T06:58:42;68.72;;;26.98;;
24685;SDS011;12804;51.176;4.452;2024-03-07T07:01:11;86.82;;;34.67;;
24685;SDS011;12804;51.176;4.452;2024-03-07T07:03:41;89.82;;;33.85;;
24685;SDS011;12804;51.176;4.452;2024-03-07T07:06:08;86.97;;;34.95;;
24685;SDS011;12804;51.176;4.452;2024-03-07T07:08:35;79.65;;;32.55;;
24685;SDS011;12804;51.176;4.452;2024-03-07T07:11:02;86.22;;;34.47;;
24685;SDS011;12804;51.176;4.452;2024-03-07T07:13:29;78.40;;;32.08;;
24685;SDS011;12804;51.176;4.452;2024-03-07T07:15:55;78.40;;;33.00;;
24685;SDS011;12804;51.176;4.452;2024-03-07T07:18:21;81.35;;;34.63;;
24685;SDS011;12804;51.176;4.452;2024-03-07T07:20:49;85.20;;;34.15;;
24685;SDS011;12804;51.176;4.452;2024-03-07T07:23:17;84.95;;;33.33;;
24685;SDS011;12804;51.176;4.452;2024-03-07T07:25:43;85.57;;;33.47;;
24685;SDS011;12804;51.176;4.452;2024-03-07T07:28:09;89.88;;;35.78;;
24685;SDS011;12804;51.176;4.452;2024-03-07T07:30:36;85.60;;;34.92;;
24685;SDS011;12804;51.176;4.452;2024-03-07T07:33:02;79.60;;;34.30;;
24685;SDS011;12804;51.176;4.452;2024-03-07T07:35:28;77.07;;;34.58;;
24685;SDS011;12804;51.176;4.452;2024-03-07T07:37:54;72.38;;;33.83;;
24685;SDS011;12804;51.176;4.452;2024-03-07T07:40:21;85.68;;;34.63;;
24685;SDS011;12804;51.176;4.452;2024-03-07T07:42:49;80.30;;;34.63;;
24685;SDS011;12804;51.176;4.452;2024-03-07T07:45:17;78.00;;;33.70;;
24685;SDS011;12804;51.176;4.452;2024-03-07T07:47:44;82.55;;;33.65;;
24685;SDS011;12804;51.176;4.452;2024-03-07T07:50:15;76.68;;;34.00;;
24685;SDS011;12804;51.176;4.452;2024-03-07T07:52:46;80.32;;;34.00;;
24685;SDS011;12804;51.176;4.452;2024-03-07T07:55:17;79.47;;;34.78;;
24685;SDS011;12804;51.176;4.452;2024-03-07T07:57:47;87.38;;;35.42;;
24685;SDS011;12804;51.176;4.452;2024-03-07T08:00:15;79.82;;;35.17;;
24685;SDS011;12804;51.176;4.452;2024-03-07T08:02:52;75.18;;;34.20;;
24685;SDS011;12804;51.176;4.452;2024-03-07T08:05:20;82.45;;;35.42;;
24685;SDS011;12804;51.176;4.452;2024-03-07T08:07:51;83.03;;;37.45;;
24685;SDS011;12804;51.176;4.452;2024-03-07T08:10:18;79.07;;;35.35;;
24685;SDS011;12804;51.176;4.452;2024-03-07T08:12:45;81.93;;;35.75;;
24685;SDS011;12804;51.176;4.452;2024-03-07T08:15:12;81.22;;;36.40;;
24685;SDS011;12804;51.176;4.452;2024-03-07T08:17:42;81.75;;;35.80;;
24685;SDS011;12804;51.176;4.452;2024-03-07T08:20:11;76.78;;;35.22;;
24685;SDS011;12804;51.176;4.452;2024-03-07T08:22:41;71.45;;;33.47;;
24685;SDS011;12804;51.176;4.452;2024-03-07T08:25:09;72.72;;;33.88;;
24685;SDS011;12804;51.176;4.452;2024-03-07T08:27:42;69.30;;;32.47;;
24685;SDS011;12804;51.176;4.452;2024-03-07T08:30:11;69.05;;;31.60;;
24685;SDS011;12804;51.176;4.452;2024-03-07T08:32:40;67.72;;;31.88;;
24685;SDS011;12804;51.176;4.452;2024-03-07T08:35:07;63.88;;;31.77;;
24685;SDS011;12804;51.176;4.452;2024-03-07T08:37:42;66.40;;;31.30;;
24685;SDS011;12804;51.176;4.452;2024-03-07T08:40:12;69.80;;;31.60;;
24685;SDS011;12804;51.176;4.452;2024-03-07T08:42:44;61.78;;;29.95;;
24685;SDS011;12804;51.176;4.452;2024-03-07T08:45:18;67.57;;;31.45;;
24685;SDS011;12804;51.176;4.452;2024-03-07T08:47:45;59.95;;;30.75;;
24685;SDS011;12804;51.176;4.452;2024-03-07T08:50:12;57.17;;;30.00;;
24685;SDS011;12804;51.176;4.452;2024-03-07T08:52:38;56.30;;;28.70;;
24685;SDS011;12804;51.176;4.452;2024-03-07T08:55:05;57.17;;;28.25;;
24685;SDS011;12804;51.176;4.452;2024-03-07T08:57:38;60.63;;;30.00;;
24685;SDS011;12804;51.176;4.452;2024-03-07T09:00:05;54.33;;;27.67;;
24685;SDS011;12804;51.176;4.452;2024-03-07T09:02:37;55.28;;;28.48;;
24685;SDS011;12804;51.176;4.452;2024-03-07T09:05:04;60.55;;;30.15;;
24685;SDS011;12804;51.176;4.452;2024-03-07T09:07:31;59.10;;;28.80;;
24685;SDS011;12804;51.176;4.452;2024-03-07T09:09:57;52.72;;;27.27;;
24685;SDS011;12804;51.176;4.452;2024-03-07T09:12:23;55.53;;;27.63;;
24685;SDS011;12804;51.176;4.452;2024-03-07T09:14:53;48.65;;;26.98;;
24685;SDS011;12804;51.176;4.452;2024-03-07T09:17:19;49.33;;;26.67;;
24685;SDS011;12804;51.176;4.452;2024-03-07T09:19:45;49.70;;;26.98;;
24685;SDS011;12804;51.176;4.452;2024-03-07T09:22:11;50.60;;;25.95;;
24685;SDS011;12804;51.176;4.452;2024-03-07T09:24:37;47.65;;;25.48;;
24685;SDS011;12804;51.176;4.452;2024-03-07T09:27:03;46.40;;;24.27;;
24685;SDS011;12804;51.176;4.452;2024-03-07T09:29:30;48.03;;;25.23;;
24685;SDS011;12804;51.176;4.452;2024-03-07T09:31:56;47.63;;;25.30;;
24685;SDS011;12804;51.176;4.452;2024-03-07T09:34:23;52.78;;;25.20;;
24685;SDS011;12804;51.176;4.452;2024-03-07T09:36:50;45.38;;;24.52;;
24685;SDS011;12804;51.176;4.452;2024-03-07T09:39:19;49.88;;;25.90;;
24685;SDS011;12804;51.176;4.452;2024-03-07T09:41:45;48.25;;;24.45;;
24685;SDS011;12804;51.176;4.452;2024-03-07T09:44:14;46.47;;;24.33;;
24685;SDS011;12804;51.176;4.452;2024-03-07T09:46:48;44.72;;;24.45;;
24685;SDS011;12804;51.176;4.452;2024-03-07T09:49:16;44.58;;;22.55;;
24685;SDS011;12804;51.176;4.452;2024-03-07T09:51:43;45.35;;;23.48;;
24685;SDS011;12804;51.176;4.452;2024-03-07T09:54:10;42.47;;;22.42;;
24685;SDS011;12804;51.176;4.452;2024-03-07T09:56:37;40.22;;;22.25;;
24685;SDS011;12804;51.176;4.452;2024-03-07T09:59:09;46.63;;;23.95;;
24685;SDS011;12804;51.176;4.452;2024-03-07T10:01:38;38.83;;;21.75;;
24685;SDS011;12804;51.176;4.452;2024-03-07T10:04:07;41.42;;;22.40;;
24685;SDS011;12804;51.176;4.452;2024-03-07T10:06:39;42.17;;;22.15;;
24685;SDS011;12804;51.176;4.452;2024-03-07T10:09:10;40.17;;;22.00;;
24685;SDS011;12804;51.176;4.452;2024-03-07T10:11:40;43.50;;;22.27;;
24685;SDS011;12804;51.176;4.452;2024-03-07T10:14:09;38.78;;;21.92;;
24685;SDS011;12804;51.176;4.452;2024-03-07T10:16:36;40.08;;;21.33;;
24685;SDS011;12804;51.176;4.452;2024-03-07T10:19:04;36.50;;;20.77;;
24685;SDS011;12804;51.176;4.452;2024-03-07T10:21:31;37.33;;;21.33;;
24685;SDS011;12804;51.176;4.452;2024-03-07T10:24:05;40.38;;;21.58;;
24685;SDS011;12804;51.176;4.452;2024-03-07T10:26:36;39.67;;;20.95;;
24685;SDS011;12804;51.176;4.452;2024-03-07T10:29:06;40.00;;;19.60;;
24685;SDS011;12804;51.176;4.452;2024-03-07T10:31:35;35.20;;;19.88;;
24685;SDS011;12804;51.176;4.452;2024-03-07T10:34:04;33.33;;;19.67;;
24685;SDS011;12804;51.176;4.452;2024-03-07T10:36:30;34.17;;;18.52;;
24685;SDS011;12804;51.176;4.452;2024-03-07T10:38:59;27.77;;;18.15;;
24685;SDS011;12804;51.176;4.452;2024-03-07T10:41:47;31.05;;;19.55;;
24685;SDS011;12804;51.176;4.452;2024-03-07T10:44:20;30.80;;;18.83;;
24685;SDS011;12804;51.176;4.452;2024-03-07T10:46:59;32.13;;;18.35;;
24685;SDS011;12804;51.176;4.452;2024-03-07T10:49:29;29.98;;;18.63;;
24685;SDS011;12804;51.176;4.452;2024-03-07T10:52:02;30.98;;;18.00;;
24685;SDS011;12804;51.176;4.452;2024-03-07T10:57:33;30.35;;;17.45;;
24685;SDS011;12804;51.176;4.452;2024-03-07T11:00:19;28.60;;;16.67;;
24685;SDS011;12804;51.176;4.452;2024-03-07T11:02:57;28.75;;;17.63;;
24685;SDS011;12804;51.176;4.452;2024-03-07T11:05:26;28.10;;;17.55;;
24685;SDS011;12804;51.176;4.452;2024-03-07T11:08:00;26.70;;;16.83;;
24685;SDS011;12804;51.176;4.452;2024-03-07T11:10:36;27.58;;;16.25;;
24685;SDS011;12804;51.176;4.452;2024-03-07T11:13:07;29.20;;;17.08;;
24685;SDS011;12804;51.176;4.452;2024-03-07T11:15:39;28.83;;;18.05;;
24685;SDS011;12804;51.176;4.452;2024-03-07T11:18:07;26.50;;;16.80;;
24685;SDS011;12804;51.176;4.452;2024-03-07T11:20:35;28.10;;;17.58;;
24685;SDS011;12804;51.176;4.452;2024-03-07T11:28:32;25.73;;;16.88;;
24685;SDS011;12804;51.176;4.452;2024-03-07T11:36:47;29.05;;;17.10;;
24685;SDS011;12804;51.176;4.452;2024-03-07T11:39:39;29.67;;;17.40;;
24685;SDS011;12804;51.176;4.452;2024-03-07T11:42:07;27.92;;;17.75;;
24685;SDS011;12804;51.176;4.452;2024-03-07T11:44:58;28.90;;;18.17;;
24685;SDS011;12804;51.176;4.452;2024-03-07T11:47:25;32.28;;;18.83;;
24685;SDS011;12804;51.176;4.452;2024-03-07T11:49:55;28.25;;;18.85;;
24685;SDS011;12804;51.176;4.452;2024-03-07T11:52:26;30.13;;;18.88;;
24685;SDS011;12804;51.176;4.452;2024-03-07T11:54:52;31.77;;;19.50;;
24685;SDS011;12804;51.176;4.452;2024-03-07T11:57:19;30.48;;;19.67;;
24685;SDS011;12804;51.176;4.452;2024-03-07T11:59:45;31.13;;;19.63;;
24685;SDS011;12804;51.176;4.452;2024-03-07T12:02:17;34.30;;;20.50;;
24685;SDS011;12804;51.176;4.452;2024-03-07T12:04:49;32.03;;;20.88;;
24685;SDS011;12804;51.176;4.452;2024-03-07T12:07:15;31.17;;;19.90;;
24685;SDS011;12804;51.176;4.452;2024-03-07T12:09:48;35.60;;;22.27;;
24685;SDS011;12804;51.176;4.452;2024-03-07T12:12:21;33.40;;;22.13;;
24685;SDS011;12804;51.176;4.452;2024-03-07T12:14:48;34.85;;;22.63;;
24685;SDS011;12804;51.176;4.452;2024-03-07T12:17:17;39.55;;;22.80;;
24685;SDS011;12804;51.176;4.452;2024-03-07T12:19:43;34.15;;;21.73;;
24685;SDS011;12804;51.176;4.452;2024-03-07T12:22:12;34.92;;;22.77;;
24685;SDS011;12804;51.176;4.452;2024-03-07T12:24:41;32.25;;;20.85;;
24685;SDS011;12804;51.176;4.452;2024-03-07T12:27:11;34.80;;;22.98;;
24685;SDS011;12804;51.176;4.452;2024-03-07T12:29:38;34.05;;;22.15;;
24685;SDS011;12804;51.176;4.452;2024-03-07T12:32:05;34.58;;;22.30;;
24685;SDS011;12804;51.176;4.452;2024-03-07T12:34:42;38.38;;;23.33;;
24685;SDS011;12804;51.176;4.452;2024-03-07T12:37:11;33.05;;;22.55;;
24685;SDS011;12804;51.176;4.452;2024-03-07T12:39:44;37.55;;;23.35;;
24685;SDS011;12804;51.176;4.452;2024-03-07T12:42:24;34.60;;;22.45;;
24685;SDS011;12804;51.176;4.452;2024-03-07T12:44:50;33.47;;;22.17;;
24685;SDS011;12804;51.176;4.452;2024-03-07T12:47:16;30.73;;;21.10;;
24685;SDS011;12804;51.176;4.452;2024-03-07T12:49:42;37.42;;;21.88;;
24685;SDS011;12804;51.176;4.452;2024-03-07T12:52:09;30.98;;;20.55;;
24685;SDS011;12804;51.176;4.452;2024-03-07T12:54:38;30.67;;;20.67;;
24685;SDS011;12804;51.176;4.452;2024-03-07T12:57:08;33.25;;;20.52;;
24685;SDS011;12804;51.176;4.452;2024-03-07T12:59:34;30.85;;;21.02;;
24685;SDS011;12804;51.176;4.452;2024-03-07T13:02:06;29.30;;;20.17;;
24685;SDS011;12804;51.176;4.452;2024-03-07T13:04:35;30.58;;;20.10;;
24685;SDS011;12804;51.176;4.452;2024-03-07T13:07:05;27.63;;;19.55;;
24685;SDS011;12804;51.176;4.452;2024-03-07T13:09:34;31.52;;;20.17;;
24685;SDS011;12804;51.176;4.452;2024-03-07T13:12:01;31.98;;;20.98;;
24685;SDS011;12804;51.176;4.452;2024-03-07T13:14:29;32.05;;;20.05;;
24685;SDS011;12804;51.176;4.452;2024-03-07T13:17:00;29.30;;;20.27;;
24685;SDS011;12804;51.176;4.452;2024-03-07T13:19:28;28.75;;;19.70;;
24685;SDS011;12804;51.176;4.452;2024-03-07T13:21:55;28.95;;;18.85;;
24685;SDS011;12804;51.176;4.452;2024-03-07T13:24:22;30.98;;;18.95;;
24685;SDS011;12804;51.176;4.452;2024-03-07T13:26:49;28.17;;;18.92;;
24685;SDS011;12804;51.176;4.452;2024-03-07T13:29:15;31.10;;;19.95;;
24685;SDS011;12804;51.176;4.452;2024-03-07T13:31:43;27.00;;;18.38;;
24685;SDS011;12804;51.176;4.452;2024-03-07T13:34:10;28.40;;;18.23;;
24685;SDS011;12804;51.176;4.452;2024-03-07T13:36:41;25.58;;;17.40;;
24685;SDS011;12804;51.176;4.452;2024-03-07T13:39:08;26.10;;;16.88;;
24685;SDS011;12804;51.176;4.452;2024-03-07T13:41:42;27.60;;;17.05;;
24685;SDS011;12804;51.176;4.452;2024-03-07T13:44:09;22.52;;;16.15;;
24685;SDS011;12804;51.176;4.452;2024-03-07T13:46:36;22.23;;;14.52;;
24685;SDS011;12804;51.176;4.452;2024-03-07T13:49:03;21.35;;;14.73;;
24685;SDS011;12804;51.176;4.452;2024-03-07T13:51:41;26.42;;;15.30;;
24685;SDS011;12804;51.176;4.452;2024-03-07T13:54:21;21.90;;;14.48;;
24685;SDS011;12804;51.176;4.452;2024-03-07T14:26:17;18.55;;;12.73;;
24685;SDS011;12804;51.176;4.452;2024-03-07T14:31:39;17.02;;;12.48;;
24685;SDS011;12804;51.176;4.452;2024-03-07T14:34:10;17.30;;;12.43;;
24685;SDS011;12804;51.176;4.452;2024-03-07T14:36:44;18.35;;;12.50;;
24685;SDS011;12804;51.176;4.452;2024-03-07T14:39:11;16.50;;;12.40;;
24685;SDS011;12804;51.176;4.452;2024-03-07T14:44:23;18.30;;;12.27;;
24685;SDS011;12804;51.176;4.452;2024-03-07T14:46:53;17.92;;;12.30;;
24685;SDS011;12804;51.176;4.452;2024-03-07T14:49:33;18.25;;;12.52;;
24685;SDS011;12804;51.176;4.452;2024-03-07T14:52:00;16.45;;;12.05;;
24685;SDS011;12804;51.176;4.452;2024-03-07T14:54:28;18.20;;;12.48;;
24685;SDS011;12804;51.176;4.452;2024-03-07T14:56:54;15.93;;;11.93;;
24685;SDS011;12804;51.176;4.452;2024-03-07T14:59:20;15.07;;;10.98;;
24685;SDS011;12804;51.176;4.452;2024-03-07T15:01:46;18.25;;;12.23;;
24685;SDS011;12804;51.176;4.452;2024-03-07T15:04:12;15.65;;;11.02;;
24685;SDS011;12804;51.176;4.452;2024-03-07T15:06:42;16.05;;;11.05;;
24685;SDS011;12804;51.176;4.452;2024-03-07T15:09:09;15.90;;;11.82;;
24685;SDS011;12804;51.176;4.452;2024-03-07T15:11:35;16.65;;;11.68;;
24685;SDS011;12804;51.176;4.452;2024-03-07T15:14:06;18.63;;;11.40;;
24685;SDS011;12804;51.176;4.452;2024-03-07T15:16:36;18.15;;;12.20;;